sensor_id;sensor_type;location;lat;lon;timestamp;temperature;humidity
5930;DHT22;2990;48.746;9.236;2023-11-19T00:01:08;6.80;99.90
5930;DHT22;2990;48.746;9.236;2023-11-19T00:03:34;6.90;99.90
5930;DHT22;2990;48.746;9.236;2023-11-19T00:06:00;6.90;99.90
5930;DHT22;2990;48.746;9.236;2023-11-19T00:08:26;6.90;99.90
5930;DHT22;2990;48.746;9.236;2023-11-19T00:10:52;6.90;99.90
5930;DHT22;2990;48.746;9.236;2023-11-19T00:13:18;7.00;99.90
5930;DHT22;2990;48.746;9.236;2023-11-19T00:15:43;7.00;99.90
5930;DHT22;2990;48.746;9.236;2023-11-19T00:18:10;7.00;99.90
5930;DHT22;2990;48.746;9.236;2023-11-19T00:20:36;7.00;99.90
5930;DHT22;2990;48.746;9.236;2023-11-19T00:23:01;7.00;99.90
5930;DHT22;2990;48.746;9.236;2023-11-19T00:25:28;7.10;99.90
5930;DHT22;2990;48.746;9.236;2023-11-19T00:27:53;7.10;99.90
5930;DHT22;2990;48.746;9.236;2023-11-19T00:30:19;7.10;99.90
5930;DHT22;2990;48.746;9.236;2023-11-19T00:32:45;7.10;99.90
5930;DHT22;2990;48.746;9.236;2023-11-19T00:35:11;7.20;99.90
5930;DHT22;2990;48.746;9.236;2023-11-19T00:37:37;7.20;99.90
5930;DHT22;2990;48.746;9.236;2023-11-19T00:40:03;7.20;99.90
5930;DHT22;2990;48.746;9.236;2023-11-19T00:42:31;7.30;99.90
5930;DHT22;2990;48.746;9.236;2023-11-19T00:44:56;7.30;99.90
5930;DHT22;2990;48.746;9.236;2023-11-19T00:47:23;7.30;99.90
5930;DHT22;2990;48.746;9.236;2023-11-19T00:49:48;7.40;99.90
5930;DHT22;2990;48.746;9.236;2023-11-19T00:52:15;7.40;99.90
5930;DHT22;2990;48.746;9.236;2023-11-19T00:54:40;7.40;99.90
5930;DHT22;2990;48.746;9.236;2023-11-19T00:57:06;7.40;99.90
5930;DHT22;2990;48.746;9.236;2023-11-19T00:59:31;7.50;99.90
5930;DHT22;2990;48.746;9.236;2023-11-19T01:01:58;7.50;99.90
5930;DHT22;2990;48.746;9.236;2023-11-19T01:04:24;7.50;99.90
5930;DHT22;2990;48.746;9.236;2023-11-19T01:06:50;7.50;99.90
5930;DHT22;2990;48.746;9.236;2023-11-19T01:09:15;7.50;99.90
5930;DHT22;2990;48.746;9.236;2023-11-19T01:11:41;7.60;99.90
5930;DHT22;2990;48.746;9.236;2023-11-19T01:14:06;7.60;99.90
5930;DHT22;2990;48.746;9.236;2023-11-19T01:16:32;7.70;99.90
5930;DHT22;2990;48.746;9.236;2023-11-19T01:18:58;7.70;99.90
5930;DHT22;2990;48.746;9.236;2023-11-19T01:21:23;7.70;99.90
5930;DHT22;2990;48.746;9.236;2023-11-19T01:23:49;7.70;99.90
5930;DHT22;2990;48.746;9.236;2023-11-19T01:26:14;7.70;99.90
5930;DHT22;2990;48.746;9.236;2023-11-19T01:28:40;7.80;99.90
5930;DHT22;2990;48.746;9.236;2023-11-19T01:31:08;7.80;99.90
5930;DHT22;2990;48.746;9.236;2023-11-19T01:33:35;7.80;99.90
5930;DHT22;2990;48.746;9.236;2023-11-19T01:36:01;7.90;99.90
5930;DHT22;2990;48.746;9.236;2023-11-19T01:38:27;7.90;99.90
5930;DHT22;2990;48.746;9.236;2023-11-19T01:40:59;7.90;99.90
5930;DHT22;2990;48.746;9.236;2023-11-19T01:43:37;7.90;99.90
5930;DHT22;2990;48.746;9.236;2023-11-19T01:46:05;7.90;99.90
5930;DHT22;2990;48.746;9.236;2023-11-19T01:48:32;8.00;99.90
5930;DHT22;2990;48.746;9.236;2023-11-19T01:50:59;8.00;99.90
5930;DHT22;2990;48.746;9.236;2023-11-19T01:53:25;8.00;99.90
5930;DHT22;2990;48.746;9.236;2023-11-19T01:55:52;8.00;99.90
5930;DHT22;2990;48.746;9.236;2023-11-19T01:58:18;8.10;99.90
5930;DHT22;2990;48.746;9.236;2023-11-19T02:00:45;8.10;99.90
5930;DHT22;2990;48.746;9.236;2023-11-19T02:03:11;8.20;99.90
5930;DHT22;2990;48.746;9.236;2023-11-19T02:05:37;8.20;99.90
5930;DHT22;2990;48.746;9.236;2023-11-19T02:08:04;8.20;99.90
5930;DHT22;2990;48.746;9.236;2023-11-19T02:10:29;8.20;99.90
5930;DHT22;2990;48.746;9.236;2023-11-19T02:12:57;8.30;99.90
5930;DHT22;2990;48.746;9.236;2023-11-19T02:15:23;8.30;99.90
5930;DHT22;2990;48.746;9.236;2023-11-19T02:17:50;8.30;99.90
5930;DHT22;2990;48.746;9.236;2023-11-19T02:20:16;8.40;99.90
5930;DHT22;2990;48.746;9.236;2023-11-19T02:22:42;8.40;99.90
5930;DHT22;2990;48.746;9.236;2023-11-19T02:25:19;8.40;99.90
5930;DHT22;2990;48.746;9.236;2023-11-19T02:27:55;8.40;99.90
5930;DHT22;2990;48.746;9.236;2023-11-19T02:30:22;8.50;99.90
5930;DHT22;2990;48.746;9.236;2023-11-19T02:32:55;8.50;99.90
5930;DHT22;2990;48.746;9.236;2023-11-19T02:35:26;8.50;99.90
5930;DHT22;2990;48.746;9.236;2023-11-19T02:37:52;8.60;99.90
5930;DHT22;2990;48.746;9.236;2023-11-19T02:40:17;8.50;99.90
5930;DHT22;2990;48.746;9.236;2023-11-19T02:42:43;8.60;99.90
5930;DHT22;2990;48.746;9.236;2023-11-19T02:45:09;8.70;99.90
5930;DHT22;2990;48.746;9.236;2023-11-19T02:47:43;8.70;99.90
5930;DHT22;2990;48.746;9.236;2023-11-19T02:50:11;8.70;99.90
5930;DHT22;2990;48.746;9.236;2023-11-19T02:52:49;8.70;99.90
5930;DHT22;2990;48.746;9.236;2023-11-19T02:55:15;8.80;99.90
5930;DHT22;2990;48.746;9.236;2023-11-19T02:57:43;8.80;99.90
5930;DHT22;2990;48.746;9.236;2023-11-19T03:00:17;8.80;99.90
5930;DHT22;2990;48.746;9.236;2023-11-19T03:02:44;8.80;99.90
5930;DHT22;2990;48.746;9.236;2023-11-19T03:05:15;8.90;99.90
5930;DHT22;2990;48.746;9.236;2023-11-19T03:07:42;8.90;99.90
5930;DHT22;2990;48.746;9.236;2023-11-19T03:10:09;8.90;99.90
5930;DHT22;2990;48.746;9.236;2023-11-19T03:12:42;8.90;99.90
5930;DHT22;2990;48.746;9.236;2023-11-19T03:15:08;9.00;99.90
5930;DHT22;2990;48.746;9.236;2023-11-19T03:17:38;9.00;99.90
5930;DHT22;2990;48.746;9.236;2023-11-19T03:20:09;9.00;99.90
5930;DHT22;2990;48.746;9.236;2023-11-19T03:22:42;9.10;99.90
5930;DHT22;2990;48.746;9.236;2023-11-19T03:25:08;9.00;99.90
5930;DHT22;2990;48.746;9.236;2023-11-19T03:27:40;9.10;99.90
5930;DHT22;2990;48.746;9.236;2023-11-19T03:30:08;9.10;99.90
5930;DHT22;2990;48.746;9.236;2023-11-19T03:32:34;9.10;99.90
5930;DHT22;2990;48.746;9.236;2023-11-19T03:35:03;9.20;99.90
5930;DHT22;2990;48.746;9.236;2023-11-19T03:37:33;9.20;99.90
5930;DHT22;2990;48.746;9.236;2023-11-19T03:39:59;9.20;99.90
5930;DHT22;2990;48.746;9.236;2023-11-19T03:42:26;9.20;99.90
5930;DHT22;2990;48.746;9.236;2023-11-19T03:44:53;9.20;99.90
5930;DHT22;2990;48.746;9.236;2023-11-19T03:47:19;9.20;99.90
5930;DHT22;2990;48.746;9.236;2023-11-19T03:49:48;9.20;99.90
5930;DHT22;2990;48.746;9.236;2023-11-19T03:52:14;9.30;99.90
5930;DHT22;2990;48.746;9.236;2023-11-19T03:54:40;9.30;99.90
5930;DHT22;2990;48.746;9.236;2023-11-19T03:57:05;9.30;99.90
5930;DHT22;2990;48.746;9.236;2023-11-19T03:59:31;9.20;99.90
5930;DHT22;2990;48.746;9.236;2023-11-19T04:01:56;9.20;99.90
5930;DHT22;2990;48.746;9.236;2023-11-19T04:04:22;9.30;99.90
5930;DHT22;2990;48.746;9.236;2023-11-19T04:06:48;9.30;99.90
5930;DHT22;2990;48.746;9.236;2023-11-19T04:09:13;9.20;99.90
5930;DHT22;2990;48.746;9.236;2023-11-19T04:11:39;9.30;99.90
5930;DHT22;2990;48.746;9.236;2023-11-19T04:14:05;9.30;99.90
5930;DHT22;2990;48.746;9.236;2023-11-19T04:16:31;9.30;99.90
5930;DHT22;2990;48.746;9.236;2023-11-19T04:18:56;9.30;99.90
5930;DHT22;2990;48.746;9.236;2023-11-19T04:21:22;9.30;99.90
5930;DHT22;2990;48.746;9.236;2023-11-19T04:23:49;9.30;99.90
5930;DHT22;2990;48.746;9.236;2023-11-19T04:26:15;9.30;99.90
5930;DHT22;2990;48.746;9.236;2023-11-19T04:28:41;9.30;99.90
5930;DHT22;2990;48.746;9.236;2023-11-19T04:31:06;9.30;99.90
5930;DHT22;2990;48.746;9.236;2023-11-19T04:33:32;9.30;99.90
5930;DHT22;2990;48.746;9.236;2023-11-19T04:35:57;9.30;99.90
5930;DHT22;2990;48.746;9.236;2023-11-19T04:38:23;9.30;99.90
5930;DHT22;2990;48.746;9.236;2023-11-19T04:40:49;9.40;99.90
5930;DHT22;2990;48.746;9.236;2023-11-19T04:43:14;9.40;99.90
5930;DHT22;2990;48.746;9.236;2023-11-19T04:45:40;9.40;99.90
5930;DHT22;2990;48.746;9.236;2023-11-19T04:48:06;9.40;99.90
5930;DHT22;2990;48.746;9.236;2023-11-19T04:50:32;9.40;99.90
5930;DHT22;2990;48.746;9.236;2023-11-19T04:52:57;9.40;99.90
5930;DHT22;2990;48.746;9.236;2023-11-19T04:55:23;9.40;99.90
5930;DHT22;2990;48.746;9.236;2023-11-19T04:57:48;9.50;99.90
5930;DHT22;2990;48.746;9.236;2023-11-19T05:00:14;9.50;99.90
5930;DHT22;2990;48.746;9.236;2023-11-19T05:02:40;9.50;99.90
5930;DHT22;2990;48.746;9.236;2023-11-19T05:05:05;9.50;99.90
5930;DHT22;2990;48.746;9.236;2023-11-19T05:07:31;9.50;99.90
5930;DHT22;2990;48.746;9.236;2023-11-19T05:09:57;9.50;99.90
5930;DHT22;2990;48.746;9.236;2023-11-19T05:12:23;9.50;99.90
5930;DHT22;2990;48.746;9.236;2023-11-19T05:14:48;9.50;99.90
5930;DHT22;2990;48.746;9.236;2023-11-19T05:17:19;9.60;99.90
5930;DHT22;2990;48.746;9.236;2023-11-19T05:19:45;9.60;99.90
5930;DHT22;2990;48.746;9.236;2023-11-19T05:22:11;9.60;99.90
5930;DHT22;2990;48.746;9.236;2023-11-19T05:24:38;9.60;99.90
5930;DHT22;2990;48.746;9.236;2023-11-19T05:27:04;9.60;99.90
5930;DHT22;2990;48.746;9.236;2023-11-19T05:29:30;9.60;99.90
5930;DHT22;2990;48.746;9.236;2023-11-19T05:31:55;9.60;99.90
5930;DHT22;2990;48.746;9.236;2023-11-19T05:34:21;9.70;99.90
5930;DHT22;2990;48.746;9.236;2023-11-19T05:36:47;9.70;99.90
5930;DHT22;2990;48.746;9.236;2023-11-19T05:39:13;9.70;99.90
5930;DHT22;2990;48.746;9.236;2023-11-19T05:41:38;9.70;99.90
5930;DHT22;2990;48.746;9.236;2023-11-19T05:44:04;9.70;99.90
5930;DHT22;2990;48.746;9.236;2023-11-19T05:46:29;9.70;99.90
5930;DHT22;2990;48.746;9.236;2023-11-19T05:48:55;9.70;99.90
5930;DHT22;2990;48.746;9.236;2023-11-19T05:51:20;9.80;99.90
5930;DHT22;2990;48.746;9.236;2023-11-19T05:53:46;9.80;99.90
5930;DHT22;2990;48.746;9.236;2023-11-19T05:56:12;9.70;99.90
5930;DHT22;2990;48.746;9.236;2023-11-19T05:58:37;9.80;99.90
5930;DHT22;2990;48.746;9.236;2023-11-19T06:01:05;9.80;99.90
5930;DHT22;2990;48.746;9.236;2023-11-19T06:03:32;9.80;99.90
5930;DHT22;2990;48.746;9.236;2023-11-19T06:05:58;9.80;99.90
5930;DHT22;2990;48.746;9.236;2023-11-19T06:08:24;9.80;99.90
5930;DHT22;2990;48.746;9.236;2023-11-19T06:10:49;9.80;99.90
5930;DHT22;2990;48.746;9.236;2023-11-19T06:13:16;9.80;99.90
5930;DHT22;2990;48.746;9.236;2023-11-19T06:15:42;9.80;99.90
5930;DHT22;2990;48.746;9.236;2023-11-19T06:18:08;9.80;99.90
5930;DHT22;2990;48.746;9.236;2023-11-19T06:20:34;9.90;99.90
5930;DHT22;2990;48.746;9.236;2023-11-19T06:23:00;9.90;99.90
5930;DHT22;2990;48.746;9.236;2023-11-19T06:25:26;9.90;99.90
5930;DHT22;2990;48.746;9.236;2023-11-19T06:27:52;9.90;99.90
5930;DHT22;2990;48.746;9.236;2023-11-19T06:30:18;9.90;99.90
5930;DHT22;2990;48.746;9.236;2023-11-19T06:32:43;9.90;99.90
5930;DHT22;2990;48.746;9.236;2023-11-19T06:35:09;9.90;99.90
5930;DHT22;2990;48.746;9.236;2023-11-19T06:37:38;9.90;99.90
5930;DHT22;2990;48.746;9.236;2023-11-19T06:40:04;9.90;99.90
5930;DHT22;2990;48.746;9.236;2023-11-19T06:42:30;9.90;99.90
5930;DHT22;2990;48.746;9.236;2023-11-19T06:44:56;10.00;99.90
5930;DHT22;2990;48.746;9.236;2023-11-19T06:47:25;10.00;99.90
5930;DHT22;2990;48.746;9.236;2023-11-19T06:49:51;10.00;99.90
5930;DHT22;2990;48.746;9.236;2023-11-19T06:52:16;10.00;99.90
5930;DHT22;2990;48.746;9.236;2023-11-19T06:54:42;10.00;99.90
5930;DHT22;2990;48.746;9.236;2023-11-19T06:57:07;10.00;99.90
5930;DHT22;2990;48.746;9.236;2023-11-19T06:59:34;10.00;99.90
5930;DHT22;2990;48.746;9.236;2023-11-19T07:02:00;10.00;99.90
5930;DHT22;2990;48.746;9.236;2023-11-19T07:04:25;10.00;99.90
5930;DHT22;2990;48.746;9.236;2023-11-19T07:06:51;10.00;99.90
5930;DHT22;2990;48.746;9.236;2023-11-19T07:09:18;10.00;99.90
5930;DHT22;2990;48.746;9.236;2023-11-19T07:11:44;10.00;99.90
5930;DHT22;2990;48.746;9.236;2023-11-19T07:14:11;10.10;99.90
5930;DHT22;2990;48.746;9.236;2023-11-19T07:16:37;10.00;99.90
5930;DHT22;2990;48.746;9.236;2023-11-19T07:19:07;10.00;99.90
5930;DHT22;2990;48.746;9.236;2023-11-19T07:21:32;10.00;99.90
5930;DHT22;2990;48.746;9.236;2023-11-19T07:23:58;10.00;99.90
5930;DHT22;2990;48.746;9.236;2023-11-19T07:26:24;10.00;99.90
5930;DHT22;2990;48.746;9.236;2023-11-19T07:28:50;10.00;99.90
5930;DHT22;2990;48.746;9.236;2023-11-19T07:31:19;10.00;99.90
5930;DHT22;2990;48.746;9.236;2023-11-19T07:33:45;10.20;99.90
5930;DHT22;2990;48.746;9.236;2023-11-19T07:36:12;10.10;99.90
5930;DHT22;2990;48.746;9.236;2023-11-19T07:38:37;10.10;99.90
5930;DHT22;2990;48.746;9.236;2023-11-19T07:41:04;10.10;99.90
5930;DHT22;2990;48.746;9.236;2023-11-19T07:43:30;10.10;99.90
5930;DHT22;2990;48.746;9.236;2023-11-19T07:45:56;10.10;99.90
5930;DHT22;2990;48.746;9.236;2023-11-19T07:48:24;10.10;99.90
5930;DHT22;2990;48.746;9.236;2023-11-19T07:50:50;10.10;99.90
5930;DHT22;2990;48.746;9.236;2023-11-19T07:53:16;10.20;99.90
5930;DHT22;2990;48.746;9.236;2023-11-19T07:55:42;10.20;99.90
5930;DHT22;2990;48.746;9.236;2023-11-19T07:58:07;10.20;99.90
5930;DHT22;2990;48.746;9.236;2023-11-19T08:00:33;10.20;99.90
5930;DHT22;2990;48.746;9.236;2023-11-19T08:02:58;10.20;99.90
5930;DHT22;2990;48.746;9.236;2023-11-19T08:05:24;10.20;99.90
5930;DHT22;2990;48.746;9.236;2023-11-19T08:07:52;10.20;99.90
5930;DHT22;2990;48.746;9.236;2023-11-19T08:10:19;10.30;99.90
5930;DHT22;2990;48.746;9.236;2023-11-19T08:12:44;10.30;99.90
5930;DHT22;2990;48.746;9.236;2023-11-19T08:15:10;10.30;99.90
5930;DHT22;2990;48.746;9.236;2023-11-19T08:17:36;10.40;99.90
5930;DHT22;2990;48.746;9.236;2023-11-19T08:20:02;10.40;99.90
5930;DHT22;2990;48.746;9.236;2023-11-19T08:22:28;10.40;99.90
5930;DHT22;2990;48.746;9.236;2023-11-19T08:24:53;10.40;99.90
5930;DHT22;2990;48.746;9.236;2023-11-19T08:27:19;10.50;99.90
5930;DHT22;2990;48.746;9.236;2023-11-19T08:29:54;10.50;99.90
5930;DHT22;2990;48.746;9.236;2023-11-19T08:32:24;10.40;99.90
5930;DHT22;2990;48.746;9.236;2023-11-19T08:34:50;10.50;99.90
5930;DHT22;2990;48.746;9.236;2023-11-19T08:37:15;10.50;99.90
5930;DHT22;2990;48.746;9.236;2023-11-19T08:39:43;10.60;99.90
5930;DHT22;2990;48.746;9.236;2023-11-19T08:42:09;10.80;99.90
5930;DHT22;2990;48.746;9.236;2023-11-19T08:44:34;10.90;99.90
5930;DHT22;2990;48.746;9.236;2023-11-19T08:47:00;11.10;99.90
5930;DHT22;2990;48.746;9.236;2023-11-19T08:49:25;11.20;99.90
5930;DHT22;2990;48.746;9.236;2023-11-19T08:51:51;11.20;99.90
5930;DHT22;2990;48.746;9.236;2023-11-19T08:54:16;11.20;99.90
5930;DHT22;2990;48.746;9.236;2023-11-19T08:56:42;11.20;99.90
5930;DHT22;2990;48.746;9.236;2023-11-19T08:59:07;11.20;99.90
5930;DHT22;2990;48.746;9.236;2023-11-19T09:01:34;11.20;99.90
5930;DHT22;2990;48.746;9.236;2023-11-19T09:03:59;11.20;99.90
5930;DHT22;2990;48.746;9.236;2023-11-19T09:06:25;11.20;99.90
5930;DHT22;2990;48.746;9.236;2023-11-19T09:08:50;11.20;99.90
5930;DHT22;2990;48.746;9.236;2023-11-19T09:11:16;11.40;99.90
5930;DHT22;2990;48.746;9.236;2023-11-19T09:13:42;11.70;99.90
5930;DHT22;2990;48.746;9.236;2023-11-19T09:16:07;11.80;99.90
5930;DHT22;2990;48.746;9.236;2023-11-19T09:18:34;12.00;99.90
5930;DHT22;2990;48.746;9.236;2023-11-19T09:21:00;12.00;99.90
5930;DHT22;2990;48.746;9.236;2023-11-19T09:23:26;12.10;99.90
5930;DHT22;2990;48.746;9.236;2023-11-19T09:25:53;12.10;99.90
5930;DHT22;2990;48.746;9.236;2023-11-19T09:28:18;12.10;99.90
5930;DHT22;2990;48.746;9.236;2023-11-19T09:30:44;12.00;99.90
5930;DHT22;2990;48.746;9.236;2023-11-19T09:33:09;12.00;99.90
5930;DHT22;2990;48.746;9.236;2023-11-19T09:35:35;12.00;99.90
5930;DHT22;2990;48.746;9.236;2023-11-19T09:38:01;12.00;99.90
5930;DHT22;2990;48.746;9.236;2023-11-19T09:40:27;12.00;99.90
5930;DHT22;2990;48.746;9.236;2023-11-19T09:42:54;12.10;99.90
5930;DHT22;2990;48.746;9.236;2023-11-19T09:45:21;12.10;99.90
5930;DHT22;2990;48.746;9.236;2023-11-19T09:47:47;12.20;99.90
5930;DHT22;2990;48.746;9.236;2023-11-19T09:50:17;12.20;99.90
5930;DHT22;2990;48.746;9.236;2023-11-19T09:52:46;12.40;99.90
5930;DHT22;2990;48.746;9.236;2023-11-19T09:55:12;12.60;99.90
5930;DHT22;2990;48.746;9.236;2023-11-19T09:57:41;12.90;99.90
5930;DHT22;2990;48.746;9.236;2023-11-19T10:00:10;13.10;99.90
5930;DHT22;2990;48.746;9.236;2023-11-19T10:02:37;13.40;99.90
5930;DHT22;2990;48.746;9.236;2023-11-19T10:05:06;13.50;99.90
5930;DHT22;2990;48.746;9.236;2023-11-19T10:07:35;13.70;99.90
5930;DHT22;2990;48.746;9.236;2023-11-19T10:10:02;13.80;41.30
5930;DHT22;2990;48.746;9.236;2023-11-19T10:12:29;13.90;1.00
5930;DHT22;2990;48.746;9.236;2023-11-19T10:14:59;13.90;1.00
5930;DHT22;2990;48.746;9.236;2023-11-19T10:17:28;13.90;1.00
5930;DHT22;2990;48.746;9.236;2023-11-19T10:19:55;13.80;1.00
5930;DHT22;2990;48.746;9.236;2023-11-19T10:22:22;13.70;1.00
5930;DHT22;2990;48.746;9.236;2023-11-19T10:24:48;13.80;1.00
5930;DHT22;2990;48.746;9.236;2023-11-19T10:27:13;13.80;1.00
5930;DHT22;2990;48.746;9.236;2023-11-19T10:29:40;13.80;1.00
5930;DHT22;2990;48.746;9.236;2023-11-19T10:32:05;13.90;1.00
5930;DHT22;2990;48.746;9.236;2023-11-19T10:34:31;13.80;1.00
5930;DHT22;2990;48.746;9.236;2023-11-19T10:36:57;13.70;1.00
5930;DHT22;2990;48.746;9.236;2023-11-19T10:39:22;13.60;1.00
5930;DHT22;2990;48.746;9.236;2023-11-19T10:41:49;13.60;1.00
5930;DHT22;2990;48.746;9.236;2023-11-19T10:44:32;13.50;1.00
5930;DHT22;2990;48.746;9.236;2023-11-19T10:47:01;13.60;1.00
5930;DHT22;2990;48.746;9.236;2023-11-19T10:49:26;13.70;46.90
5930;DHT22;2990;48.746;9.236;2023-11-19T10:51:53;13.70;1.00
5930;DHT22;2990;48.746;9.236;2023-11-19T10:54:19;13.80;1.00
5930;DHT22;2990;48.746;9.236;2023-11-19T10:56:45;14.00;1.00
5930;DHT22;2990;48.746;9.236;2023-11-19T10:59:15;14.20;1.00
5930;DHT22;2990;48.746;9.236;2023-11-19T11:01:45;14.40;1.00
5930;DHT22;2990;48.746;9.236;2023-11-19T11:04:22;14.50;1.00
5930;DHT22;2990;48.746;9.236;2023-11-19T11:06:48;14.40;77.70
5930;DHT22;2990;48.746;9.236;2023-11-19T11:09:14;14.50;99.90
5930;DHT22;2990;48.746;9.236;2023-11-19T11:11:40;14.70;99.90
5930;DHT22;2990;48.746;9.236;2023-11-19T11:14:11;14.80;1.00
5930;DHT22;2990;48.746;9.236;2023-11-19T11:16:37;14.80;99.90
5930;DHT22;2990;48.746;9.236;2023-11-19T11:19:05;14.70;1.00
5930;DHT22;2990;48.746;9.236;2023-11-19T11:21:31;14.50;1.00
5930;DHT22;2990;48.746;9.236;2023-11-19T11:26:59;14.20;99.90
5930;DHT22;2990;48.746;9.236;2023-11-19T11:38:15;13.90;99.90
5930;DHT22;2990;48.746;9.236;2023-11-19T11:40:42;13.80;1.00
5930;DHT22;2990;48.746;9.236;2023-11-19T11:43:48;13.80;98.50
5930;DHT22;2990;48.746;9.236;2023-11-19T11:48:58;13.70;1.00
5930;DHT22;2990;48.746;9.236;2023-11-19T11:57:07;14.10;99.90
5930;DHT22;2990;48.746;9.236;2023-11-19T11:59:49;14.10;7.50
5930;DHT22;2990;48.746;9.236;2023-11-19T12:02:18;14.10;52.10
5930;DHT22;2990;48.746;9.236;2023-11-19T12:04:51;14.20;99.90
5930;DHT22;2990;48.746;9.236;2023-11-19T12:07:22;14.20;1.00
5930;DHT22;2990;48.746;9.236;2023-11-19T12:10:05;14.20;1.00
5930;DHT22;2990;48.746;9.236;2023-11-19T12:12:33;14.30;1.00
5930;DHT22;2990;48.746;9.236;2023-11-19T12:20:06;14.40;1.00
5930;DHT22;2990;48.746;9.236;2023-11-19T12:22:36;14.30;1.00
5930;DHT22;2990;48.746;9.236;2023-11-19T12:25:02;14.10;1.00
5930;DHT22;2990;48.746;9.236;2023-11-19T12:27:29;13.90;40.10
5930;DHT22;2990;48.746;9.236;2023-11-19T12:29:55;13.90;20.20
5930;DHT22;2990;48.746;9.236;2023-11-19T12:32:22;14.00;1.00
5930;DHT22;2990;48.746;9.236;2023-11-19T12:34:48;13.90;99.90
5930;DHT22;2990;48.746;9.236;2023-11-19T12:37:13;13.90;99.90
5930;DHT22;2990;48.746;9.236;2023-11-19T12:39:39;13.80;1.00
5930;DHT22;2990;48.746;9.236;2023-11-19T12:42:05;13.80;1.00
5930;DHT22;2990;48.746;9.236;2023-11-19T12:44:31;13.90;1.00
5930;DHT22;2990;48.746;9.236;2023-11-19T12:47:03;14.10;1.00
5930;DHT22;2990;48.746;9.236;2023-11-19T12:49:29;14.10;99.90
5930;DHT22;2990;48.746;9.236;2023-11-19T12:51:54;14.00;1.00
5930;DHT22;2990;48.746;9.236;2023-11-19T12:54:31;13.90;99.90
5930;DHT22;2990;48.746;9.236;2023-11-19T12:56:56;13.90;99.90
5930;DHT22;2990;48.746;9.236;2023-11-19T12:59:22;13.90;33.70
5930;DHT22;2990;48.746;9.236;2023-11-19T13:02:14;13.90;99.90
5930;DHT22;2990;48.746;9.236;2023-11-19T13:04:40;14.10;99.90
5930;DHT22;2990;48.746;9.236;2023-11-19T13:07:06;14.20;99.90
5930;DHT22;2990;48.746;9.236;2023-11-19T13:09:31;14.20;1.00
5930;DHT22;2990;48.746;9.236;2023-11-19T13:11:57;14.20;1.00
5930;DHT22;2990;48.746;9.236;2023-11-19T13:14:36;14.40;99.90
5930;DHT22;2990;48.746;9.236;2023-11-19T13:17:02;14.50;99.90
5930;DHT22;2990;48.746;9.236;2023-11-19T13:19:27;14.50;1.00
5930;DHT22;2990;48.746;9.236;2023-11-19T13:21:53;14.60;1.00
5930;DHT22;2990;48.746;9.236;2023-11-19T13:24:18;14.40;1.00
5930;DHT22;2990;48.746;9.236;2023-11-19T13:26:44;14.20;1.00
5930;DHT22;2990;48.746;9.236;2023-11-19T13:29:10;14.00;1.00
5930;DHT22;2990;48.746;9.236;2023-11-19T13:31:36;13.90;1.00
5930;DHT22;2990;48.746;9.236;2023-11-19T13:34:01;13.80;1.00
5930;DHT22;2990;48.746;9.236;2023-11-19T13:36:27;13.90;1.00
5930;DHT22;2990;48.746;9.236;2023-11-19T13:38:53;13.80;1.00
5930;DHT22;2990;48.746;9.236;2023-11-19T13:41:25;13.80;1.00
5930;DHT22;2990;48.746;9.236;2023-11-19T13:43:50;13.80;94.50
5930;DHT22;2990;48.746;9.236;2023-11-19T13:46:16;13.80;99.90
5930;DHT22;2990;48.746;9.236;2023-11-19T13:48:42;13.60;99.90
5930;DHT22;2990;48.746;9.236;2023-11-19T13:51:07;13.60;99.90
5930;DHT22;2990;48.746;9.236;2023-11-19T13:53:35;13.70;99.90
5930;DHT22;2990;48.746;9.236;2023-11-19T13:56:01;13.60;99.90
5930;DHT22;2990;48.746;9.236;2023-11-19T13:58:26;13.50;99.90
5930;DHT22;2990;48.746;9.236;2023-11-19T14:00:52;13.50;1.00
5930;DHT22;2990;48.746;9.236;2023-11-19T14:03:18;13.60;99.90
5930;DHT22;2990;48.746;9.236;2023-11-19T14:05:43;13.60;99.90
5930;DHT22;2990;48.746;9.236;2023-11-19T14:08:09;13.60;99.90
5930;DHT22;2990;48.746;9.236;2023-11-19T14:10:38;13.40;99.90
5930;DHT22;2990;48.746;9.236;2023-11-19T14:13:08;13.30;99.90
5930;DHT22;2990;48.746;9.236;2023-11-19T14:15:34;13.20;99.90
5930;DHT22;2990;48.746;9.236;2023-11-19T14:18:00;13.20;99.90
5930;DHT22;2990;48.746;9.236;2023-11-19T14:20:26;13.10;1.00
5930;DHT22;2990;48.746;9.236;2023-11-19T14:22:52;13.10;1.00
5930;DHT22;2990;48.746;9.236;2023-11-19T14:25:18;13.10;1.00
5930;DHT22;2990;48.746;9.236;2023-11-19T14:27:44;13.10;1.00
5930;DHT22;2990;48.746;9.236;2023-11-19T14:30:12;13.10;1.00
5930;DHT22;2990;48.746;9.236;2023-11-19T14:32:42;13.10;99.90
5930;DHT22;2990;48.746;9.236;2023-11-19T14:35:10;13.10;99.90
5930;DHT22;2990;48.746;9.236;2023-11-19T14:37:35;13.10;99.90
5930;DHT22;2990;48.746;9.236;2023-11-19T14:40:01;13.10;1.00
5930;DHT22;2990;48.746;9.236;2023-11-19T14:42:30;13.00;1.00
5930;DHT22;2990;48.746;9.236;2023-11-19T14:44:55;12.90;1.00
5930;DHT22;2990;48.746;9.236;2023-11-19T14:47:21;12.80;1.00
5930;DHT22;2990;48.746;9.236;2023-11-19T14:49:47;12.70;99.90
5930;DHT22;2990;48.746;9.236;2023-11-19T14:52:13;12.70;34.30
5930;DHT22;2990;48.746;9.236;2023-11-19T14:54:39;12.70;99.90
5930;DHT22;2990;48.746;9.236;2023-11-19T14:57:05;12.70;99.90
5930;DHT22;2990;48.746;9.236;2023-11-19T14:59:33;12.60;99.90
5930;DHT22;2990;48.746;9.236;2023-11-19T15:01:59;12.50;1.00
5930;DHT22;2990;48.746;9.236;2023-11-19T15:04:26;12.50;1.00
5930;DHT22;2990;48.746;9.236;2023-11-19T15:06:52;12.60;99.90
5930;DHT22;2990;48.746;9.236;2023-11-19T15:09:17;12.60;99.90
5930;DHT22;2990;48.746;9.236;2023-11-19T15:11:44;12.50;99.90
5930;DHT22;2990;48.746;9.236;2023-11-19T15:14:14;12.50;1.00
5930;DHT22;2990;48.746;9.236;2023-11-19T15:16:42;12.40;1.00
5930;DHT22;2990;48.746;9.236;2023-11-19T15:19:08;12.30;1.00
5930;DHT22;2990;48.746;9.236;2023-11-19T15:21:34;12.30;1.00
5930;DHT22;2990;48.746;9.236;2023-11-19T15:24:00;12.20;99.90
5930;DHT22;2990;48.746;9.236;2023-11-19T15:26:26;12.20;1.00
5930;DHT22;2990;48.746;9.236;2023-11-19T15:28:52;12.20;1.00
5930;DHT22;2990;48.746;9.236;2023-11-19T15:31:23;12.10;1.00
5930;DHT22;2990;48.746;9.236;2023-11-19T15:33:48;12.10;70.50
5930;DHT22;2990;48.746;9.236;2023-11-19T15:36:14;12.00;1.60
5930;DHT22;2990;48.746;9.236;2023-11-19T15:38:40;12.00;99.90
5930;DHT22;2990;48.746;9.236;2023-11-19T15:41:06;12.00;99.90
5930;DHT22;2990;48.746;9.236;2023-11-19T15:43:33;11.90;99.90
5930;DHT22;2990;48.746;9.236;2023-11-19T15:45:58;11.90;99.90
5930;DHT22;2990;48.746;9.236;2023-11-19T15:48:24;11.90;99.90
5930;DHT22;2990;48.746;9.236;2023-11-19T15:50:51;11.80;99.90
5930;DHT22;2990;48.746;9.236;2023-11-19T15:53:17;11.80;99.90
5930;DHT22;2990;48.746;9.236;2023-11-19T15:55:44;11.70;99.90
5930;DHT22;2990;48.746;9.236;2023-11-19T15:58:09;11.70;99.90
5930;DHT22;2990;48.746;9.236;2023-11-19T16:00:36;11.70;1.00
5930;DHT22;2990;48.746;9.236;2023-11-19T16:03:01;11.70;99.90
5930;DHT22;2990;48.746;9.236;2023-11-19T16:05:28;11.60;1.00
5930;DHT22;2990;48.746;9.236;2023-11-19T16:07:53;11.60;91.70
5930;DHT22;2990;48.746;9.236;2023-11-19T16:10:19;11.50;1.00
5930;DHT22;2990;48.746;9.236;2023-11-19T16:12:45;11.50;99.90
5930;DHT22;2990;48.746;9.236;2023-11-19T16:15:11;11.40;1.00
5930;DHT22;2990;48.746;9.236;2023-11-19T16:17:38;11.30;1.00
5930;DHT22;2990;48.746;9.236;2023-11-19T16:20:04;11.30;99.90
5930;DHT22;2990;48.746;9.236;2023-11-19T16:22:35;11.20;1.00
5930;DHT22;2990;48.746;9.236;2023-11-19T16:25:01;11.20;99.90
5930;DHT22;2990;48.746;9.236;2023-11-19T16:27:27;11.10;1.00
5930;DHT22;2990;48.746;9.236;2023-11-19T16:29:53;11.00;1.00
5930;DHT22;2990;48.746;9.236;2023-11-19T16:32:19;10.90;99.90
5930;DHT22;2990;48.746;9.236;2023-11-19T16:34:44;10.90;1.00